createdAt,value
2022-11-12T00:02:39.441Z,97498.03
2022-11-12T00:05:26.244Z,97498.03
2022-11-12T00:08:12.776Z,97495.56
2022-11-12T00:10:59.552Z,97496.75
2022-11-12T00:13:46.949Z,97485.28
2022-11-12T00:16:38.395Z,97482.44
2022-11-12T00:19:25.179Z,97488.38
2022-11-12T00:22:12.443Z,97477.78
2022-11-12T00:24:59.404Z,97486.75
2022-11-12T00:27:46.823Z,97488.16
2022-11-12T00:30:33.472Z,97485.50
2022-11-12T00:33:21.836Z,97486.31
2022-11-12T00:36:08.961Z,97482.84
2022-11-12T00:38:55.928Z,97482.00
2022-11-12T00:41:43.291Z,97480.81
2022-11-12T00:44:31.092Z,97477.53
2022-11-12T00:47:18.092Z,97480.38
2022-11-12T00:50:07.318Z,97475.66
2022-11-12T00:52:54.313Z,97472.38
2022-11-12T00:55:42.213Z,97484.00
2022-11-12T00:58:30.564Z,97477.44
2022-11-12T01:01:18.249Z,97481.13
2022-11-12T01:04:05.627Z,97479.50
2022-11-12T01:06:53.739Z,97478.66
2022-11-12T01:09:43.444Z,97486.81
2022-11-12T01:12:32.214Z,97487.00
2022-11-12T01:15:19.294Z,97489.66
2022-11-12T01:18:05.774Z,97488.03
2022-11-12T01:20:52.564Z,97483.16
2022-11-12T01:23:41.988Z,97486.19
2022-11-12T01:26:29.634Z,97489.66
2022-11-12T01:29:16.548Z,97485.00
2022-11-12T01:32:03.127Z,97479.69
2022-11-12T01:34:49.832Z,97478.03
2022-11-12T01:37:36.798Z,97478.59
2022-11-12T01:40:24.889Z,97482.09
2022-11-12T01:43:13.784Z,97488.63
2022-11-12T01:46:00.317Z,97481.88
2022-11-12T01:48:50.156Z,97479.59
2022-11-12T01:51:41.963Z,97473.88
2022-11-12T01:54:29.893Z,97468.75
2022-11-12T01:57:18.628Z,97480.19
2022-11-12T02:00:07.272Z,97475.88
2022-11-12T02:02:54.750Z,97480.94
2022-11-12T02:05:42.144Z,97471.56
2022-11-12T02:08:29.157Z,97472.56
2022-11-12T02:11:16.913Z,97467.44
2022-11-12T02:14:07.063Z,97469.03
2022-11-12T02:16:53.633Z,97460.06
2022-11-12T02:19:40.538Z,97463.16
2022-11-12T02:22:29.199Z,97458.69
2022-11-12T02:25:18.279Z,97450.09
2022-11-12T02:28:06.427Z,97449.91
2022-11-12T02:30:53.342Z,97453.38
2022-11-12T02:33:40.284Z,97449.72
2022-11-12T02:36:27.375Z,97441.75
2022-11-12T02:39:15.429Z,97439.09
2022-11-12T02:42:02.387Z,97439.09
2022-11-12T02:44:49.025Z,97433.78
2022-11-12T02:47:35.692Z,97434.16
2022-11-12T02:50:22.588Z,97441.13
2022-11-12T02:53:09.131Z,97444.59
2022-11-12T02:55:57.168Z,97443.75
2022-11-12T02:58:44.288Z,97444.41
2022-11-12T03:01:30.933Z,97439.50
2022-11-12T03:04:17.914Z,97448.72
2022-11-12T03:07:04.588Z,97435.44
2022-11-12T03:09:51.652Z,97443.56
2022-11-12T03:12:40.169Z,97445.84
2022-11-12T03:15:27.240Z,97441.38
2022-11-12T03:18:14.076Z,97438.28
2022-11-12T03:21:01.048Z,97438.84
2022-11-12T03:23:47.861Z,97441.72
2022-11-12T03:26:36.061Z,97435.38
2022-11-12T03:29:24.232Z,97432.34
2022-11-12T03:32:11.025Z,97431.50
2022-11-12T03:34:58.006Z,97441.31
2022-11-12T03:37:44.580Z,97438.03
2022-11-12T03:40:31.664Z,97440.25
2022-11-12T03:43:18.742Z,97435.72
2022-11-12T03:46:07.512Z,97433.06
2022-11-12T03:48:54.322Z,97425.69
2022-11-12T03:51:41.499Z,97430.16
2022-11-12T03:54:28.430Z,97422.38
2022-11-12T03:57:14.927Z,97422.19
2022-11-12T04:00:01.573Z,97424.03
2022-11-12T04:02:49.993Z,97424.59
2022-11-12T04:05:54.703Z,97429.66
2022-11-12T04:08:44.408Z,97422.91
2022-11-12T04:11:33.896Z,97426.94
2022-11-12T04:14:21.173Z,97442.41
2022-11-12T04:17:24.252Z,97431.56
2022-11-12T04:20:30.116Z,97434.41
2022-11-12T04:23:16.846Z,97439.66
2022-11-12T04:26:21.648Z,97443.06
2022-11-12T04:29:26.108Z,97443.38
2022-11-12T04:32:12.633Z,97440.66
2022-11-12T04:34:59.611Z,97440.03
2022-11-12T04:37:48.640Z,97446.91
2022-11-12T04:40:53.259Z,97444.66
2022-11-12T04:43:57.771Z,97452.78
2022-11-12T04:46:44.840Z,97447.66
2022-11-12T04:49:31.824Z,97448.66
2022-11-12T04:52:18.867Z,97446.22
2022-11-12T04:55:08.016Z,97439.66
2022-11-12T04:58:00.199Z,97449.78
2022-11-12T05:00:47.362Z,97449.53
2022-11-12T05:03:34.570Z,97456.22
2022-11-12T05:06:39.049Z,97446.75
2022-11-12T05:09:26.886Z,97445.22
2022-11-12T05:12:14.867Z,97453.53
2022-11-12T05:15:03.760Z,97450.69
2022-11-12T05:17:51.190Z,97447.59
2022-11-12T05:20:38.062Z,97454.28
2022-11-12T05:23:24.656Z,97452.25
2022-11-12T05:26:11.421Z,97456.47
2022-11-12T05:28:59.712Z,97457.38
2022-11-12T05:31:46.855Z,97458.03
2022-11-12T05:34:33.616Z,97453.75
2022-11-12T05:37:20.338Z,97455.09
2022-11-12T05:40:08.794Z,97454.66
2022-11-12T05:42:57.137Z,97455.19
2022-11-12T05:45:45.683Z,97448.84
2022-11-12T05:48:32.719Z,97458.31
2022-11-12T05:51:19.720Z,97460.03
2022-11-12T05:54:06.726Z,97461.88
2022-11-12T05:56:53.462Z,97461.97
2022-11-12T05:59:40.687Z,97461.97
2022-11-12T06:02:28.912Z,97460.50
2022-11-12T06:05:15.738Z,97456.19
2022-11-12T06:08:02.316Z,97464.22
2022-11-12T06:10:50.040Z,97461.59
2022-11-12T06:13:37.182Z,97465.41
2022-11-12T06:16:23.812Z,97458.13
2022-11-12T06:19:12.371Z,97460.28
2022-11-12T06:21:59.250Z,97454.81
2022-11-12T06:24:46.233Z,97467.22
2022-11-12T06:27:33.163Z,97466.59
2022-11-12T06:30:25.413Z,97467.78
2022-11-12T06:33:13.164Z,97467.31
2022-11-12T06:36:03.341Z,97473.78
2022-11-12T06:38:50.404Z,97481.44
2022-11-12T06:41:37.915Z,97473.69
2022-11-12T06:44:24.929Z,97483.25
2022-11-12T06:47:11.583Z,97482.25
2022-11-12T06:49:58.772Z,97481.44
2022-11-12T06:52:47.165Z,97483.06
2022-11-12T06:55:34.419Z,97486.53
2022-11-12T06:58:21.343Z,97480.09
2022-11-12T07:01:12.585Z,97485.16
2022-11-12T07:03:59.881Z,97485.81
2022-11-12T07:06:46.925Z,97487.28
2022-11-12T07:09:35.697Z,97489.19
2022-11-12T07:12:22.853Z,97478.28
2022-11-12T07:15:10.310Z,97478.53
2022-11-12T07:17:57.412Z,97478.84
2022-11-12T07:20:44.608Z,97477.09
2022-11-12T07:23:32.518Z,97476.91
2022-11-12T07:26:21.870Z,97479.81
2022-11-12T07:29:08.882Z,97473.75
2022-11-12T07:31:55.806Z,97474.25
2022-11-12T07:34:42.414Z,97476.63
2022-11-12T07:37:29.335Z,97476.72
2022-11-12T07:40:16.616Z,97472.97
2022-11-12T07:43:05.260Z,97471.88
2022-11-12T07:45:52.310Z,97466.09
2022-11-12T07:48:39.438Z,97467.34
2022-11-12T07:51:26.956Z,97452.84
2022-11-12T07:54:15.533Z,97465.78
2022-11-12T07:57:02.748Z,97469.13
2022-11-12T07:59:51.529Z,97464.31
2022-11-12T08:02:38.588Z,97463.81
2022-11-12T08:05:26.020Z,97462.34
2022-11-12T08:08:13.155Z,97459.00
2022-11-12T08:11:00.500Z,97461.56
2022-11-12T08:13:47.140Z,97463.09
2022-11-12T08:16:35.529Z,97472.13
2022-11-12T08:19:22.321Z,97468.97
2022-11-12T08:22:08.862Z,97469.69
2022-11-12T08:24:57.071Z,97474.72
2022-11-12T08:27:44.311Z,97466.16
2022-11-12T08:30:31.776Z,97468.47
2022-11-12T08:33:25.935Z,97464.41
2022-11-12T08:36:13.468Z,97459.50
2022-11-12T08:39:03.087Z,97467.28
2022-11-12T08:41:49.912Z,97463.56
2022-11-12T08:44:37.260Z,97467.66
2022-11-12T08:47:24.083Z,97470.81
2022-11-12T08:50:12.688Z,97461.28
2022-11-12T08:53:03.099Z,97472.66
2022-11-12T08:55:49.993Z,97466.06
2022-11-12T08:58:37.383Z,97460.75
2022-11-12T09:01:24.299Z,97465.88
2022-11-12T09:04:11.008Z,97461.00
2022-11-12T09:07:01.778Z,97461.88
2022-11-12T09:09:48.715Z,97458.41
2022-11-12T09:12:35.785Z,97461.41
2022-11-12T09:15:40.697Z,97460.63
2022-11-12T09:18:30.711Z,97451.78
2022-11-12T09:21:22.698Z,97455.34
2022-11-12T09:24:13.790Z,97457.81
2022-11-12T09:27:00.740Z,97467.59
2022-11-12T09:29:47.889Z,97459.09
2022-11-12T09:32:37.579Z,97460.94
2022-11-12T09:35:24.694Z,97451.00
2022-11-12T09:38:12.429Z,97464.59
2022-11-12T09:41:28.733Z,97476.28
2022-11-12T09:44:22.264Z,97474.00
2022-11-12T09:47:16.862Z,97469.75
2022-11-12T09:50:19.725Z,97474.16
2022-11-12T09:53:13.540Z,97476.13
2022-11-12T09:56:00.676Z,97476.06
2022-11-12T09:58:49.413Z,97474.50
2022-11-12T10:01:59.864Z,97476.00
2022-11-12T10:05:47.010Z,97474.84
2022-11-12T10:12:20.308Z,97468.50
2022-11-12T10:15:46.732Z,97478.53
2022-11-12T10:19:01.865Z,97469.31
2022-11-12T10:21:56.360Z,97474.00
2022-11-12T10:24:51.154Z,97463.28
2022-11-12T10:28:04.109Z,97460.84
2022-11-12T10:31:05.838Z,97454.25
2022-11-12T10:33:57.734Z,97450.56
2022-11-12T10:36:46.660Z,97448.94
2022-11-12T10:39:35.356Z,97449.56
2022-11-12T10:42:22.915Z,97444.06
2022-11-12T10:45:21.059Z,97446.09
2022-11-12T10:48:34.677Z,97449.44
2022-11-12T10:51:27.004Z,97442.50
2022-11-12T10:54:22.684Z,97442.84
2022-11-12T10:57:21.070Z,97439.88
2022-11-12T11:00:09.657Z,97440.97
2022-11-12T11:02:57.112Z,97441.78
2022-11-12T11:05:54.385Z,97441.00
2022-11-12T11:08:45.312Z,97439.38
2022-11-12T11:11:32.353Z,97437.22
2022-11-12T11:14:38.450Z,97446.34
2022-11-12T11:17:27.065Z,97437.06
2022-11-12T11:20:18.392Z,97433.28
2022-11-12T11:23:08.621Z,97434.34
2022-11-12T11:25:55.820Z,97440.00
2022-11-12T11:28:46.101Z,97431.59
2022-11-12T11:31:37.264Z,97430.88
2022-11-12T11:34:33.325Z,97429.19
2022-11-12T11:37:34.572Z,97423.25
2022-11-12T11:40:32.978Z,97435.91
2022-11-12T11:43:58.028Z,97428.88
2022-11-12T11:46:53.481Z,97423.72
2022-11-12T11:50:13.859Z,97424.28
2022-11-12T11:53:11.936Z,97417.03
2022-11-12T11:56:11.481Z,97414.94
2022-11-12T11:59:06.920Z,97413.66
2022-11-12T12:02:14.378Z,97416.13
2022-11-12T12:05:04.246Z,97410.47
2022-11-12T12:07:54.033Z,97408.31
2022-11-12T12:11:07.436Z,97405.63
2022-11-12T12:14:06.067Z,97401.81
2022-11-12T12:16:58.383Z,97401.56
2022-11-12T12:20:00.603Z,97386.94
2022-11-12T12:22:50.916Z,97388.31
2022-11-12T12:25:38.476Z,97389.44
2022-11-12T12:28:30.946Z,97388.34
2022-11-12T12:31:20.928Z,97390.75
2022-11-12T12:34:45.399Z,97387.28
2022-11-12T12:37:36.478Z,97385.91
2022-11-12T12:41:11.155Z,97387.53
2022-11-12T12:44:20.307Z,97382.91
2022-11-12T12:47:27.383Z,97379.56
2022-11-12T12:50:27.387Z,97378.38
2022-11-12T12:53:33.583Z,97376.72
2022-11-12T12:56:54.769Z,97375.66
2022-11-12T12:59:51.223Z,97371.59
2022-11-12T13:02:42.960Z,97376.13
2022-11-12T13:05:36.762Z,97382.81
2022-11-12T13:08:30.221Z,97377.94
2022-11-12T13:12:07.860Z,97374.31
2022-11-12T13:15:23.311Z,97370.00
2022-11-12T13:18:31.864Z,97364.25
2022-11-12T13:25:13.438Z,97362.31
2022-11-12T13:28:20.759Z,97367.22
2022-11-12T13:31:37.390Z,97369.47
2022-11-12T13:34:39.081Z,97371.69
2022-11-12T13:37:31.643Z,97367.19
2022-11-12T13:40:33.032Z,97366.47
2022-11-12T13:43:53.396Z,97364.22
2022-11-12T13:46:42.861Z,97360.06
2022-11-12T13:49:40.354Z,97358.78
2022-11-12T13:52:29.847Z,97360.16
2022-11-12T13:55:26.057Z,97357.22
2022-11-12T13:58:34.201Z,97352.16
2022-11-12T14:01:27.576Z,97350.94
2022-11-12T14:04:16.870Z,97352.56
2022-11-12T14:07:37.800Z,97350.41
2022-11-12T14:10:36.250Z,97351.66
2022-11-12T14:13:52.977Z,97352.72
2022-11-12T14:16:47.797Z,97341.91
2022-11-12T14:19:51.926Z,97339.28
2022-11-12T14:22:42.158Z,97342.56
2022-11-12T14:25:34.035Z,97343.72
2022-11-12T14:28:29.346Z,97343.41
2022-11-12T14:31:21.584Z,97343.31
2022-11-12T14:34:22.305Z,97343.31
2022-11-12T14:37:26.650Z,97341.81
2022-11-12T14:40:20.111Z,97332.94
2022-11-12T14:43:18.679Z,97332.25
2022-11-12T14:46:23.036Z,97327.47
2022-11-12T14:49:17.161Z,97336.16
2022-11-12T14:55:16.412Z,97329.91
2022-11-12T14:58:07.955Z,97326.16
2022-11-12T15:00:56.838Z,97330.31
2022-11-12T15:03:53.186Z,97332.09
2022-11-12T15:06:44.816Z,97329.75
2022-11-12T15:09:43.827Z,97329.91
2022-11-12T15:12:35.727Z,97329.03
2022-11-12T15:15:30.464Z,97326.53
2022-11-12T15:18:21.255Z,97322.97
2022-11-12T15:21:23.952Z,97324.50
2022-11-12T15:24:26.678Z,97330.22
2022-11-12T15:27:29.648Z,97323.56
2022-11-12T15:30:18.359Z,97322.09
2022-11-12T15:33:19.113Z,97323.59
2022-11-12T15:36:12.600Z,97330.03
2022-11-12T15:38:59.743Z,97326.41
2022-11-12T15:41:46.809Z,97324.00
2022-11-12T15:44:35.268Z,97321.38
2022-11-12T15:47:25.764Z,97320.25
2022-11-12T15:50:16.610Z,97315.13
2022-11-12T15:53:04.680Z,97319.72
2022-11-12T15:55:52.130Z,97309.16
2022-11-12T15:58:43.571Z,97316.78
2022-11-12T16:01:30.653Z,97305.13
2022-11-12T16:04:18.028Z,97311.50
2022-11-12T16:07:07.158Z,97312.78
2022-11-12T16:09:54.354Z,97319.38
2022-11-12T16:12:44.181Z,97303.88
2022-11-12T16:15:31.723Z,97310.03
2022-11-12T16:18:21.902Z,97317.00
2022-11-12T16:21:10.103Z,97309.66
2022-11-12T16:23:58.854Z,97317.88
2022-11-12T16:26:49.165Z,97318.09
2022-11-12T16:29:36.231Z,97318.72
2022-11-12T16:32:22.885Z,97320.38
2022-11-12T16:35:10.362Z,97311.59
2022-11-12T16:37:57.004Z,97316.09
2022-11-12T16:40:45.097Z,97309.75
2022-11-12T16:43:32.274Z,97317.75
2022-11-12T16:46:26.247Z,97315.09
2022-11-12T16:49:13.624Z,97321.84
2022-11-12T16:52:01.163Z,97310.41
2022-11-12T16:54:47.775Z,97313.25
2022-11-12T16:57:35.869Z,97307.94
2022-11-12T17:00:23.330Z,97311.00
2022-11-12T17:03:12.794Z,97304.88
2022-11-12T17:05:59.625Z,97304.06
2022-11-12T17:08:48.214Z,97300.31
2022-11-12T17:11:35.429Z,97302.59
2022-11-12T17:14:28.329Z,97305.00
2022-11-12T17:17:15.718Z,97301.34
2022-11-12T17:20:02.780Z,97301.34
2022-11-12T17:22:49.239Z,97296.81
2022-11-12T17:25:36.663Z,97299.66
2022-11-12T17:28:26.260Z,97297.44
2022-11-12T17:31:17.756Z,97295.38
2022-11-12T17:34:05.905Z,97294.75
2022-11-12T17:36:52.740Z,97299.44
2022-11-12T17:39:39.765Z,97299.84
2022-11-12T17:42:26.347Z,97293.50
2022-11-12T17:45:12.936Z,97282.84
2022-11-12T17:48:02.345Z,97277.34
2022-11-12T17:50:49.128Z,97273.88
2022-11-12T17:53:35.616Z,97272.44
2022-11-12T17:56:23.126Z,97269.34
2022-11-12T17:59:10.061Z,97266.47
2022-11-12T18:01:56.374Z,97277.69
2022-11-12T18:04:44.779Z,97264.84
2022-11-12T18:07:31.241Z,97266.66
2022-11-12T18:10:19.684Z,97261.53
2022-11-12T18:13:06.474Z,97260.09
2022-11-12T18:15:52.913Z,97268.06
2022-11-12T18:18:39.657Z,97258.84
2022-11-12T18:21:27.574Z,97257.81
2022-11-12T18:24:15.375Z,97259.06
2022-11-12T18:27:01.824Z,97255.97
2022-11-12T18:29:48.354Z,97250.44
2022-11-12T18:32:35.205Z,97250.84
2022-11-12T18:35:24.668Z,97247.94
2022-11-12T18:38:16.907Z,97244.47
2022-11-12T18:41:07.830Z,97248.97
2022-11-12T18:43:54.187Z,97247.75
2022-11-12T18:46:40.993Z,97244.25
2022-11-12T18:49:27.822Z,97245.44
2022-11-12T18:52:14.366Z,97251.13
2022-11-12T18:55:03.074Z,97247.63
2022-11-12T18:57:51.650Z,97249.09
2022-11-12T19:00:38.774Z,97251.69
2022-11-12T19:03:25.514Z,97248.81
2022-11-12T19:06:13.844Z,97244.72
2022-11-12T19:09:00.916Z,97253.25
2022-11-12T19:11:49.173Z,97254.66
2022-11-12T19:14:36.033Z,97259.31
2022-11-12T19:17:25.972Z,97264.63
2022-11-12T19:20:14.837Z,97258.47
2022-11-12T19:23:01.653Z,97255.19
2022-11-12T19:25:48.053Z,97257.03
2022-11-12T19:28:37.058Z,97265.41
2022-11-12T19:31:24.539Z,97267.78
2022-11-12T19:34:11.480Z,97266.16
2022-11-12T19:37:26.848Z,97257.78
2022-11-12T19:40:05.634Z,97258.75
2022-11-12T19:42:52.750Z,97262.97
2022-11-12T19:45:40.858Z,97255.41
2022-11-12T19:48:31.272Z,97258.47
2022-11-12T19:51:17.997Z,97258.00
2022-11-12T19:54:05.614Z,97260.44
2022-11-12T19:56:52.322Z,97253.03
2022-11-12T19:59:40.109Z,97256.28
2022-11-12T20:02:29.097Z,97250.53
2022-11-12T20:05:16.146Z,97258.84
2022-11-12T20:08:04.749Z,97265.38
2022-11-12T20:10:51.617Z,97253.31
2022-11-12T20:13:38.357Z,97254.31
2022-11-12T20:16:25.949Z,97255.28
2022-11-12T20:19:13.919Z,97250.53
2022-11-12T20:22:00.670Z,97250.94
2022-11-12T20:24:47.588Z,97249.31
2022-11-12T20:27:34.554Z,97250.31
2022-11-12T20:30:21.013Z,97253.31
2022-11-12T20:33:08.058Z,97244.13
2022-11-12T20:35:57.825Z,97250.81
2022-11-12T20:38:45.693Z,97250.34
2022-11-12T20:41:32.935Z,97256.22
2022-11-12T20:44:19.712Z,97250.84
2022-11-12T20:47:06.307Z,97252.88
2022-11-12T20:49:52.944Z,97249.00
2022-11-12T20:52:41.341Z,97238.66
2022-11-12T20:55:28.093Z,97242.47
2022-11-12T20:58:14.971Z,97232.91
2022-11-12T21:01:01.491Z,97244.66
2022-11-12T21:03:48.464Z,97243.84
2022-11-12T21:06:35.443Z,97242.22
2022-11-12T21:09:24.598Z,97233.84
2022-11-12T21:12:11.372Z,97231.38
2022-11-12T21:14:57.888Z,97234.22
2022-11-12T21:17:44.619Z,97234.97
2022-11-12T21:20:31.008Z,97229.69
2022-11-12T21:23:17.768Z,97235.97
2022-11-12T21:26:06.130Z,97230.22
2022-11-12T21:28:53.310Z,97231.88
2022-11-12T21:31:40.213Z,97225.81
2022-11-12T21:34:26.935Z,97223.41
2022-11-12T21:37:13.718Z,97223.13
2022-11-12T21:40:00.459Z,97220.00
2022-11-12T21:42:48.789Z,97212.03
2022-11-12T21:45:35.498Z,97209.56
2022-11-12T21:48:22.107Z,97207.75
2022-11-12T21:51:09.432Z,97204.28
2022-11-12T21:53:56.487Z,97208.50
2022-11-12T21:56:44.092Z,97199.84
2022-11-12T21:59:32.583Z,97200.84
2022-11-12T22:02:19.369Z,97190.94
2022-11-12T22:05:06.861Z,97192.75
2022-11-12T22:07:53.796Z,97188.84
2022-11-12T22:10:40.501Z,97185.31
2022-11-12T22:13:27.843Z,97181.66
2022-11-12T22:16:16.816Z,97185.94
2022-11-12T22:19:03.267Z,97180.03
2022-11-12T22:21:50.036Z,97172.91
2022-11-12T22:24:37.366Z,97176.28
2022-11-12T22:27:25.761Z,97176.91
2022-11-12T22:30:13.478Z,97169.38
2022-11-12T22:33:01.833Z,97169.09
2022-11-12T22:35:49.205Z,97172.31
2022-11-12T22:38:36.844Z,97160.28
2022-11-12T22:41:24.534Z,97167.09
2022-11-12T22:44:11.117Z,97164.91
2022-11-12T22:46:58.085Z,97165.00
2022-11-12T22:49:46.864Z,97166.09
2022-11-12T22:52:34.404Z,97164.09
2022-11-12T22:55:21.307Z,97159.00
2022-11-12T22:58:09.060Z,97160.25
2022-11-12T23:00:55.659Z,97156.72
2022-11-12T23:03:42.624Z,97155.91
2022-11-12T23:06:30.905Z,97152.63
2022-11-12T23:09:17.638Z,97153.44
2022-11-12T23:12:04.208Z,97148.34
2022-11-12T23:14:50.851Z,97148.72
2022-11-12T23:17:37.239Z,97146.81
2022-11-12T23:20:24.275Z,97153.47
2022-11-12T23:23:12.321Z,97136.06
2022-11-12T23:26:03.527Z,97141.34
2022-11-12T23:28:50.442Z,97135.81
2022-11-12T23:31:36.913Z,97141.91
2022-11-12T23:34:23.739Z,97136.81
2022-11-12T23:37:10.391Z,97132.47
2022-11-12T23:39:58.240Z,97137.44
2022-11-12T23:42:44.969Z,97136.81
2022-11-12T23:45:31.483Z,97133.56
2022-11-12T23:48:18.586Z,97139.13
2022-11-12T23:51:06.001Z,97132.72
2022-11-12T23:53:52.599Z,97121.00
2022-11-12T23:56:40.735Z,97129.09
2022-11-12T23:59:27.511Z,97125.81
